sensor_id;sensor_type;location;lat;lon;timestamp;temperature;humidity
80228;DHT22;69539;42.138;24.742;2023-04-24T00:00:14;22.30;26.30
80228;DHT22;69539;42.138;24.742;2023-04-24T00:02:41;22.30;26.30
80228;DHT22;69539;42.138;24.742;2023-04-24T00:05:12;22.40;26.40
80228;DHT22;69539;42.138;24.742;2023-04-24T00:07:39;22.30;26.40
80228;DHT22;69539;42.138;24.742;2023-04-24T00:10:06;22.30;26.40
80228;DHT22;69539;42.138;24.742;2023-04-24T00:12:32;22.30;26.40
80228;DHT22;69539;42.138;24.742;2023-04-24T00:14:58;22.30;26.40
80228;DHT22;69539;42.138;24.742;2023-04-24T00:17:24;22.30;26.40
80228;DHT22;69539;42.138;24.742;2023-04-24T00:19:49;22.30;26.40
80228;DHT22;69539;42.138;24.742;2023-04-24T00:22:24;22.30;26.40
80228;DHT22;69539;42.138;24.742;2023-04-24T00:24:50;22.30;26.40
80228;DHT22;69539;42.138;24.742;2023-04-24T00:27:16;22.30;26.40
80228;DHT22;69539;42.138;24.742;2023-04-24T00:29:41;22.30;26.40
80228;DHT22;69539;42.138;24.742;2023-04-24T00:32:07;22.30;26.40
80228;DHT22;69539;42.138;24.742;2023-04-24T00:34:33;22.30;26.40
80228;DHT22;69539;42.138;24.742;2023-04-24T00:36:58;22.30;26.40
80228;DHT22;69539;42.138;24.742;2023-04-24T00:39:24;22.30;26.40
80228;DHT22;69539;42.138;24.742;2023-04-24T00:41:51;22.30;26.40
80228;DHT22;69539;42.138;24.742;2023-04-24T00:44:16;22.30;26.40
80228;DHT22;69539;42.138;24.742;2023-04-24T00:46:42;22.30;26.40
80228;DHT22;69539;42.138;24.742;2023-04-24T00:49:08;22.30;26.40
80228;DHT22;69539;42.138;24.742;2023-04-24T00:51:37;22.30;26.40
80228;DHT22;69539;42.138;24.742;2023-04-24T00:54:02;22.30;26.40
80228;DHT22;69539;42.138;24.742;2023-04-24T00:56:28;22.30;26.40
80228;DHT22;69539;42.138;24.742;2023-04-24T00:58:54;22.30;26.40
80228;DHT22;69539;42.138;24.742;2023-04-24T01:01:21;22.30;26.40
80228;DHT22;69539;42.138;24.742;2023-04-24T01:03:51;22.30;26.40
80228;DHT22;69539;42.138;24.742;2023-04-24T01:06:19;22.30;26.40
80228;DHT22;69539;42.138;24.742;2023-04-24T01:08:46;22.30;26.40
80228;DHT22;69539;42.138;24.742;2023-04-24T01:11:13;22.30;26.40
80228;DHT22;69539;42.138;24.742;2023-04-24T01:13:39;22.30;26.40
80228;DHT22;69539;42.138;24.742;2023-04-24T01:16:05;22.30;26.40
80228;DHT22;69539;42.138;24.742;2023-04-24T01:18:31;22.30;26.40
80228;DHT22;69539;42.138;24.742;2023-04-24T01:20:58;22.30;26.40
80228;DHT22;69539;42.138;24.742;2023-04-24T01:23:27;22.30;26.40
80228;DHT22;69539;42.138;24.742;2023-04-24T01:25:52;22.30;26.40
80228;DHT22;69539;42.138;24.742;2023-04-24T01:28:18;22.30;27.30
80228;DHT22;69539;42.138;24.742;2023-04-24T01:30:44;22.30;26.40
80228;DHT22;69539;42.138;24.742;2023-04-24T01:33:10;22.30;26.40
80228;DHT22;69539;42.138;24.742;2023-04-24T01:35:40;22.30;26.40
80228;DHT22;69539;42.138;24.742;2023-04-24T01:38:05;22.30;26.40
80228;DHT22;69539;42.138;24.742;2023-04-24T01:40:34;22.30;26.40
80228;DHT22;69539;42.138;24.742;2023-04-24T01:43:00;22.30;26.40
80228;DHT22;69539;42.138;24.742;2023-04-24T01:45:26;22.30;26.40
80228;DHT22;69539;42.138;24.742;2023-04-24T01:47:51;22.20;26.40
80228;DHT22;69539;42.138;24.742;2023-04-24T01:50:18;22.30;26.40
80228;DHT22;69539;42.138;24.742;2023-04-24T01:52:44;22.30;26.40
80228;DHT22;69539;42.138;24.742;2023-04-24T01:55:10;22.30;26.40
80228;DHT22;69539;42.138;24.742;2023-04-24T01:57:36;22.30;26.40
80228;DHT22;69539;42.138;24.742;2023-04-24T02:00:03;22.30;26.40
80228;DHT22;69539;42.138;24.742;2023-04-24T02:02:30;22.20;26.40
80228;DHT22;69539;42.138;24.742;2023-04-24T02:04:58;22.20;26.40
80228;DHT22;69539;42.138;24.742;2023-04-24T02:07:24;22.20;26.40
80228;DHT22;69539;42.138;24.742;2023-04-24T02:09:49;22.30;26.40
80228;DHT22;69539;42.138;24.742;2023-04-24T02:12:15;22.20;26.40
80228;DHT22;69539;42.138;24.742;2023-04-24T02:14:43;22.20;26.40
80228;DHT22;69539;42.138;24.742;2023-04-24T02:17:09;22.20;26.40
80228;DHT22;69539;42.138;24.742;2023-04-24T02:19:35;22.30;26.40
80228;DHT22;69539;42.138;24.742;2023-04-24T02:22:00;22.20;26.30
80228;DHT22;69539;42.138;24.742;2023-04-24T02:24:26;22.20;26.40
80228;DHT22;69539;42.138;24.742;2023-04-24T02:26:52;22.20;26.40
80228;DHT22;69539;42.138;24.742;2023-04-24T02:29:17;22.30;26.40
80228;DHT22;69539;42.138;24.742;2023-04-24T02:31:43;22.20;26.40
80228;DHT22;69539;42.138;24.742;2023-04-24T02:34:09;22.20;26.40
80228;DHT22;69539;42.138;24.742;2023-04-24T02:36:34;22.20;26.40
80228;DHT22;69539;42.138;24.742;2023-04-24T02:39:00;22.20;26.40
80228;DHT22;69539;42.138;24.742;2023-04-24T02:41:26;22.20;26.40
80228;DHT22;69539;42.138;24.742;2023-04-24T02:43:57;22.20;26.40
80228;DHT22;69539;42.138;24.742;2023-04-24T02:46:23;22.20;26.40
80228;DHT22;69539;42.138;24.742;2023-04-24T02:48:48;22.20;26.40
80228;DHT22;69539;42.138;24.742;2023-04-24T02:51:14;22.20;26.40
80228;DHT22;69539;42.138;24.742;2023-04-24T02:53:42;22.20;26.40
80228;DHT22;69539;42.138;24.742;2023-04-24T02:56:08;22.20;26.40
80228;DHT22;69539;42.138;24.742;2023-04-24T02:58:34;22.20;26.40
80228;DHT22;69539;42.138;24.742;2023-04-24T03:01:00;22.20;26.40
80228;DHT22;69539;42.138;24.742;2023-04-24T03:03:26;22.20;26.40
80228;DHT22;69539;42.138;24.742;2023-04-24T03:05:52;22.20;26.40
80228;DHT22;69539;42.138;24.742;2023-04-24T03:08:18;22.20;26.40
80228;DHT22;69539;42.138;24.742;2023-04-24T03:10:43;22.20;26.40
80228;DHT22;69539;42.138;24.742;2023-04-24T03:13:09;22.20;26.40
80228;DHT22;69539;42.138;24.742;2023-04-24T03:15:35;22.20;26.40
80228;DHT22;69539;42.138;24.742;2023-04-24T03:18:01;22.20;26.40
80228;DHT22;69539;42.138;24.742;2023-04-24T03:20:29;22.20;26.40
80228;DHT22;69539;42.138;24.742;2023-04-24T03:22:57;22.20;26.40
80228;DHT22;69539;42.138;24.742;2023-04-24T03:25:22;22.20;26.40
80228;DHT22;69539;42.138;24.742;2023-04-24T03:27:48;22.20;26.40
80228;DHT22;69539;42.138;24.742;2023-04-24T03:30:14;22.20;26.40
80228;DHT22;69539;42.138;24.742;2023-04-24T03:32:39;22.20;26.40
80228;DHT22;69539;42.138;24.742;2023-04-24T03:35:06;22.20;26.40
80228;DHT22;69539;42.138;24.742;2023-04-24T03:37:33;22.20;26.40
80228;DHT22;69539;42.138;24.742;2023-04-24T03:40:01;22.10;26.40
80228;DHT22;69539;42.138;24.742;2023-04-24T03:42:27;22.10;26.40
80228;DHT22;69539;42.138;24.742;2023-04-24T03:44:53;22.10;26.40
80228;DHT22;69539;42.138;24.742;2023-04-24T03:47:18;22.10;26.30
80228;DHT22;69539;42.138;24.742;2023-04-24T03:49:44;22.10;26.30
80228;DHT22;69539;42.138;24.742;2023-04-24T03:52:10;22.10;26.30
80228;DHT22;69539;42.138;24.742;2023-04-24T03:54:35;22.20;26.40
80228;DHT22;69539;42.138;24.742;2023-04-24T03:57:01;22.20;26.40
80228;DHT22;69539;42.138;24.742;2023-04-24T03:59:27;22.20;26.30
80228;DHT22;69539;42.138;24.742;2023-04-24T04:01:52;22.20;26.30
80228;DHT22;69539;42.138;24.742;2023-04-24T04:04:18;22.30;26.30
80228;DHT22;69539;42.138;24.742;2023-04-24T04:06:44;22.30;26.20
80228;DHT22;69539;42.138;24.742;2023-04-24T04:09:10;22.30;26.20
80228;DHT22;69539;42.138;24.742;2023-04-24T04:11:36;22.00;27.20
80228;DHT22;69539;42.138;24.742;2023-04-24T04:14:03;21.80;28.20
80228;DHT22;69539;42.138;24.742;2023-04-24T04:16:28;21.80;28.80
80228;DHT22;69539;42.138;24.742;2023-04-24T04:18:54;21.70;28.80
80228;DHT22;69539;42.138;24.742;2023-04-24T04:21:20;21.60;28.10
80228;DHT22;69539;42.138;24.742;2023-04-24T04:23:46;21.50;27.70
80228;DHT22;69539;42.138;24.742;2023-04-24T04:26:12;21.40;27.40
80228;DHT22;69539;42.138;24.742;2023-04-24T04:28:38;21.30;27.10
80228;DHT22;69539;42.138;24.742;2023-04-24T04:31:05;21.30;26.90
80228;DHT22;69539;42.138;24.742;2023-04-24T04:33:30;21.20;26.90
80228;DHT22;69539;42.138;24.742;2023-04-24T04:35:56;21.20;26.80
80228;DHT22;69539;42.138;24.742;2023-04-24T04:38:22;21.10;26.90
80228;DHT22;69539;42.138;24.742;2023-04-24T04:40:48;21.10;26.90
80228;DHT22;69539;42.138;24.742;2023-04-24T04:43:14;21.10;26.80
80228;DHT22;69539;42.138;24.742;2023-04-24T04:45:42;21.10;26.90
80228;DHT22;69539;42.138;24.742;2023-04-24T04:48:09;21.00;27.00
80228;DHT22;69539;42.138;24.742;2023-04-24T04:50:39;21.00;27.00
80228;DHT22;69539;42.138;24.742;2023-04-24T04:53:05;21.00;26.90
80228;DHT22;69539;42.138;24.742;2023-04-24T04:55:32;20.80;26.90
80228;DHT22;69539;42.138;24.742;2023-04-24T04:58:00;20.80;26.90
80228;DHT22;69539;42.138;24.742;2023-04-24T05:00:26;20.80;26.90
80228;DHT22;69539;42.138;24.742;2023-04-24T05:02:52;20.70;26.90
80228;DHT22;69539;42.138;24.742;2023-04-24T05:05:18;20.60;27.00
80228;DHT22;69539;42.138;24.742;2023-04-24T05:07:44;20.60;27.20
80228;DHT22;69539;42.138;24.742;2023-04-24T05:10:10;20.60;27.40
80228;DHT22;69539;42.138;24.742;2023-04-24T05:12:36;20.60;27.50
80228;DHT22;69539;42.138;24.742;2023-04-24T05:15:02;20.60;27.50
80228;DHT22;69539;42.138;24.742;2023-04-24T05:17:30;20.50;27.50
80228;DHT22;69539;42.138;24.742;2023-04-24T05:19:56;20.50;27.60
80228;DHT22;69539;42.138;24.742;2023-04-24T05:22:21;20.50;27.60
80228;DHT22;69539;42.138;24.742;2023-04-24T05:24:47;20.60;27.60
80228;DHT22;69539;42.138;24.742;2023-04-24T05:27:13;20.60;27.70
80228;DHT22;69539;42.138;24.742;2023-04-24T05:29:39;20.60;27.70
80228;DHT22;69539;42.138;24.742;2023-04-24T05:32:10;20.50;27.70
80228;DHT22;69539;42.138;24.742;2023-04-24T05:34:36;20.50;27.80
80228;DHT22;69539;42.138;24.742;2023-04-24T05:37:02;20.50;27.80
80228;DHT22;69539;42.138;24.742;2023-04-24T05:39:28;20.50;27.80
80228;DHT22;69539;42.138;24.742;2023-04-24T05:41:54;20.50;27.90
80228;DHT22;69539;42.138;24.742;2023-04-24T05:44:21;20.40;28.00
80228;DHT22;69539;42.138;24.742;2023-04-24T05:46:48;20.50;28.20
80228;DHT22;69539;42.138;24.742;2023-04-24T05:49:14;20.50;28.20
80228;DHT22;69539;42.138;24.742;2023-04-24T05:51:41;20.50;28.30
80228;DHT22;69539;42.138;24.742;2023-04-24T05:54:06;20.50;28.30
80228;DHT22;69539;42.138;24.742;2023-04-24T05:56:32;20.50;28.20
80228;DHT22;69539;42.138;24.742;2023-04-24T05:58:58;20.50;28.30
80228;DHT22;69539;42.138;24.742;2023-04-24T06:01:24;20.50;28.30
80228;DHT22;69539;42.138;24.742;2023-04-24T06:03:50;20.50;28.30
80228;DHT22;69539;42.138;24.742;2023-04-24T06:06:16;20.50;28.30
80228;DHT22;69539;42.138;24.742;2023-04-24T06:08:44;20.50;28.30
80228;DHT22;69539;42.138;24.742;2023-04-24T06:11:10;20.50;28.30
80228;DHT22;69539;42.138;24.742;2023-04-24T06:13:38;20.50;28.30
80228;DHT22;69539;42.138;24.742;2023-04-24T06:16:04;20.50;28.30
80228;DHT22;69539;42.138;24.742;2023-04-24T06:18:30;20.60;28.30
80228;DHT22;69539;42.138;24.742;2023-04-24T06:20:56;20.70;28.10
80228;DHT22;69539;42.138;24.742;2023-04-24T06:23:23;20.80;28.00
80228;DHT22;69539;42.138;24.742;2023-04-24T06:25:49;20.90;27.90
80228;DHT22;69539;42.138;24.742;2023-04-24T06:28:18;21.00;27.80
80228;DHT22;69539;42.138;24.742;2023-04-24T06:30:43;21.10;27.80
80228;DHT22;69539;42.138;24.742;2023-04-24T06:33:09;21.20;27.60
80228;DHT22;69539;42.138;24.742;2023-04-24T06:35:36;21.20;27.50
80228;DHT22;69539;42.138;24.742;2023-04-24T06:38:01;21.30;27.40
80228;DHT22;69539;42.138;24.742;2023-04-24T06:40:27;21.40;27.30
80228;DHT22;69539;42.138;24.742;2023-04-24T06:42:53;21.50;27.20
80228;DHT22;69539;42.138;24.742;2023-04-24T06:45:18;21.50;27.20
80228;DHT22;69539;42.138;24.742;2023-04-24T06:47:44;21.60;27.10
80228;DHT22;69539;42.138;24.742;2023-04-24T06:50:10;21.60;27.00
80228;DHT22;69539;42.138;24.742;2023-04-24T06:52:36;21.70;27.00
80228;DHT22;69539;42.138;24.742;2023-04-24T06:55:03;21.70;26.90
80228;DHT22;69539;42.138;24.742;2023-04-24T06:57:29;21.80;26.90
80228;DHT22;69539;42.138;24.742;2023-04-24T06:59:55;21.80;26.80
80228;DHT22;69539;42.138;24.742;2023-04-24T07:02:21;21.90;26.70
80228;DHT22;69539;42.138;24.742;2023-04-24T07:04:46;21.90;27.60
80228;DHT22;69539;42.138;24.742;2023-04-24T07:07:13;21.90;26.60
80228;DHT22;69539;42.138;24.742;2023-04-24T07:09:40;22.00;26.60
80228;DHT22;69539;42.138;24.742;2023-04-24T07:12:10;22.00;26.50
80228;DHT22;69539;42.138;24.742;2023-04-24T07:14:36;22.10;26.60
80228;DHT22;69539;42.138;24.742;2023-04-24T07:17:03;22.10;26.50
80228;DHT22;69539;42.138;24.742;2023-04-24T07:19:29;22.10;26.40
80228;DHT22;69539;42.138;24.742;2023-04-24T07:21:55;22.20;26.40
80228;DHT22;69539;42.138;24.742;2023-04-24T07:24:21;22.20;26.40
80228;DHT22;69539;42.138;24.742;2023-04-24T07:26:46;22.20;26.40
80228;DHT22;69539;42.138;24.742;2023-04-24T07:29:13;22.20;26.40
80228;DHT22;69539;42.138;24.742;2023-04-24T07:31:41;22.30;26.40
80228;DHT22;69539;42.138;24.742;2023-04-24T07:34:07;22.30;26.20
80228;DHT22;69539;42.138;24.742;2023-04-24T07:36:32;22.30;26.20
80228;DHT22;69539;42.138;24.742;2023-04-24T07:38:58;22.30;26.20
80228;DHT22;69539;42.138;24.742;2023-04-24T07:41:24;22.30;26.20
80228;DHT22;69539;42.138;24.742;2023-04-24T07:43:50;22.40;26.20
80228;DHT22;69539;42.138;24.742;2023-04-24T07:46:16;22.40;26.20
80228;DHT22;69539;42.138;24.742;2023-04-24T07:48:42;22.40;26.30
80228;DHT22;69539;42.138;24.742;2023-04-24T07:51:08;22.40;26.10
80228;DHT22;69539;42.138;24.742;2023-04-24T07:53:36;22.50;26.10
80228;DHT22;69539;42.138;24.742;2023-04-24T07:56:01;22.40;26.00
80228;DHT22;69539;42.138;24.742;2023-04-24T07:58:27;22.50;26.10
80228;DHT22;69539;42.138;24.742;2023-04-24T08:00:53;22.50;26.10
80228;DHT22;69539;42.138;24.742;2023-04-24T08:03:19;22.50;26.10
80228;DHT22;69539;42.138;24.742;2023-04-24T08:05:45;22.50;26.00
80228;DHT22;69539;42.138;24.742;2023-04-24T08:08:11;22.50;26.00
80228;DHT22;69539;42.138;24.742;2023-04-24T08:10:37;22.50;26.00
80228;DHT22;69539;42.138;24.742;2023-04-24T08:13:05;22.60;26.00
80228;DHT22;69539;42.138;24.742;2023-04-24T08:15:31;22.60;26.00
80228;DHT22;69539;42.138;24.742;2023-04-24T08:17:57;22.50;25.90
80228;DHT22;69539;42.138;24.742;2023-04-24T08:20:23;22.50;26.00
80228;DHT22;69539;42.138;24.742;2023-04-24T08:22:49;22.60;26.00
80228;DHT22;69539;42.138;24.742;2023-04-24T08:25:14;22.60;26.00
80228;DHT22;69539;42.138;24.742;2023-04-24T08:27:40;22.60;26.00
80228;DHT22;69539;42.138;24.742;2023-04-24T08:30:07;22.60;26.00
80228;DHT22;69539;42.138;24.742;2023-04-24T08:32:33;22.60;26.00
80228;DHT22;69539;42.138;24.742;2023-04-24T08:34:59;22.60;26.00
80228;DHT22;69539;42.138;24.742;2023-04-24T08:37:26;22.70;26.10
